sensor_id;sensor_type;location;lat;lon;timestamp;P1;durP1;ratioP1;P2;durP2;ratioP2
11588;SDS011;5850;51.360;12.362;2022-11-20T00:01:34;29.17;;;19.00;;
11588;SDS011;5850;51.360;12.362;2022-11-20T00:04:03;28.17;;;17.80;;
11588;SDS011;5850;51.360;12.362;2022-11-20T00:06:31;26.00;;;17.13;;
11588;SDS011;5850;51.360;12.362;2022-11-20T00:09:00;25.13;;;17.27;;
11588;SDS011;5850;51.360;12.362;2022-11-20T00:11:29;24.73;;;17.10;;
11588;SDS011;5850;51.360;12.362;2022-11-20T00:14:00;24.27;;;17.47;;
11588;SDS011;5850;51.360;12.362;2022-11-20T00:16:30;25.93;;;17.80;;
11588;SDS011;5850;51.360;12.362;2022-11-20T00:19:00;24.20;;;15.97;;
11588;SDS011;5850;51.360;12.362;2022-11-20T00:21:29;26.07;;;17.57;;
11588;SDS011;5850;51.360;12.362;2022-11-20T00:23:57;30.07;;;18.80;;
11588;SDS011;5850;51.360;12.362;2022-11-20T00:26:27;23.47;;;17.57;;
11588;SDS011;5850;51.360;12.362;2022-11-20T00:28:57;26.03;;;16.57;;
11588;SDS011;5850;51.360;12.362;2022-11-20T00:31:27;25.07;;;17.40;;
11588;SDS011;5850;51.360;12.362;2022-11-20T00:33:59;25.67;;;16.97;;
11588;SDS011;5850;51.360;12.362;2022-11-20T00:36:28;25.90;;;16.87;;
11588;SDS011;5850;51.360;12.362;2022-11-20T00:38:59;25.23;;;17.37;;
11588;SDS011;5850;51.360;12.362;2022-11-20T00:41:28;25.70;;;17.97;;
11588;SDS011;5850;51.360;12.362;2022-11-20T00:43:57;27.27;;;18.10;;
11588;SDS011;5850;51.360;12.362;2022-11-20T00:46:26;21.03;;;15.23;;
11588;SDS011;5850;51.360;12.362;2022-11-20T00:48:55;24.77;;;16.47;;
11588;SDS011;5850;51.360;12.362;2022-11-20T00:51:24;28.00;;;16.60;;
11588;SDS011;5850;51.360;12.362;2022-11-20T00:53:57;24.33;;;16.33;;
11588;SDS011;5850;51.360;12.362;2022-11-20T00:56:28;20.97;;;15.70;;
11588;SDS011;5850;51.360;12.362;2022-11-20T00:58:58;23.23;;;16.00;;
11588;SDS011;5850;51.360;12.362;2022-11-20T01:01:28;22.50;;;16.30;;
11588;SDS011;5850;51.360;12.362;2022-11-20T01:03:58;22.93;;;17.33;;
11588;SDS011;5850;51.360;12.362;2022-11-20T01:06:31;28.77;;;17.83;;
11588;SDS011;5850;51.360;12.362;2022-11-20T01:09:09;26.07;;;16.30;;
11588;SDS011;5850;51.360;12.362;2022-11-20T01:11:41;22.07;;;15.60;;
11588;SDS011;5850;51.360;12.362;2022-11-20T01:14:12;22.77;;;16.43;;
11588;SDS011;5850;51.360;12.362;2022-11-20T01:16:44;24.73;;;17.20;;
11588;SDS011;5850;51.360;12.362;2022-11-20T01:19:18;25.07;;;16.93;;
11588;SDS011;5850;51.360;12.362;2022-11-20T01:21:52;26.13;;;16.90;;
11588;SDS011;5850;51.360;12.362;2022-11-20T01:24:21;26.30;;;17.17;;
11588;SDS011;5850;51.360;12.362;2022-11-20T01:26:50;23.80;;;17.60;;
11588;SDS011;5850;51.360;12.362;2022-11-20T01:29:20;23.50;;;17.50;;
11588;SDS011;5850;51.360;12.362;2022-11-20T01:31:51;27.53;;;17.47;;
11588;SDS011;5850;51.360;12.362;2022-11-20T01:34:20;25.47;;;17.17;;
11588;SDS011;5850;51.360;12.362;2022-11-20T01:36:49;26.80;;;18.47;;
11588;SDS011;5850;51.360;12.362;2022-11-20T01:39:20;25.00;;;17.30;;
11588;SDS011;5850;51.360;12.362;2022-11-20T01:41:52;24.97;;;17.50;;
11588;SDS011;5850;51.360;12.362;2022-11-20T01:44:44;26.03;;;17.10;;
11588;SDS011;5850;51.360;12.362;2022-11-20T01:47:21;27.63;;;17.90;;
11588;SDS011;5850;51.360;12.362;2022-11-20T01:50:14;26.37;;;17.57;;
11588;SDS011;5850;51.360;12.362;2022-11-20T01:52:52;24.30;;;17.00;;
11588;SDS011;5850;51.360;12.362;2022-11-20T01:55:28;28.13;;;17.47;;
11588;SDS011;5850;51.360;12.362;2022-11-20T01:58:07;25.10;;;17.70;;
11588;SDS011;5850;51.360;12.362;2022-11-20T02:00:36;26.10;;;18.57;;
11588;SDS011;5850;51.360;12.362;2022-11-20T02:03:06;26.45;;;18.13;;
11588;SDS011;5850;51.360;12.362;2022-11-20T02:08:47;21.80;;;16.83;;
11588;SDS011;5850;51.360;12.362;2022-11-20T02:11:15;23.73;;;17.10;;
11588;SDS011;5850;51.360;12.362;2022-11-20T02:13:44;25.43;;;17.27;;
11588;SDS011;5850;51.360;12.362;2022-11-20T02:18:59;24.93;;;17.83;;
11588;SDS011;5850;51.360;12.362;2022-11-20T02:21:32;28.90;;;19.10;;
11588;SDS011;5850;51.360;12.362;2022-11-20T02:24:32;26.67;;;17.77;;
11588;SDS011;5850;51.360;12.362;2022-11-20T02:27:06;27.17;;;18.52;;
11588;SDS011;5850;51.360;12.362;2022-11-20T02:29:39;26.48;;;16.73;;
11588;SDS011;5850;51.360;12.362;2022-11-20T02:32:25;27.13;;;17.52;;
11588;SDS011;5850;51.360;12.362;2022-11-20T02:37:47;26.98;;;17.63;;
11588;SDS011;5850;51.360;12.362;2022-11-20T02:40:21;26.67;;;17.05;;
11588;SDS011;5850;51.360;12.362;2022-11-20T02:42:53;27.33;;;18.92;;
11588;SDS011;5850;51.360;12.362;2022-11-20T02:45:25;26.35;;;17.08;;
11588;SDS011;5850;51.360;12.362;2022-11-20T02:47:53;26.75;;;17.90;;
11588;SDS011;5850;51.360;12.362;2022-11-20T02:50:22;25.40;;;17.10;;
11588;SDS011;5850;51.360;12.362;2022-11-20T02:52:50;25.80;;;17.30;;
11588;SDS011;5850;51.360;12.362;2022-11-20T02:55:19;24.98;;;17.55;;
11588;SDS011;5850;51.360;12.362;2022-11-20T02:57:47;26.70;;;17.83;;
11588;SDS011;5850;51.360;12.362;2022-11-20T03:00:16;31.95;;;18.55;;
11588;SDS011;5850;51.360;12.362;2022-11-20T03:02:44;27.23;;;18.50;;
11588;SDS011;5850;51.360;12.362;2022-11-20T03:05:13;25.77;;;18.77;;
11588;SDS011;5850;51.360;12.362;2022-11-20T03:07:42;28.20;;;18.13;;
11588;SDS011;5850;51.360;12.362;2022-11-20T03:10:11;24.27;;;17.13;;
11588;SDS011;5850;51.360;12.362;2022-11-20T03:12:39;24.55;;;17.30;;
11588;SDS011;5850;51.360;12.362;2022-11-20T03:15:08;24.02;;;17.60;;
11588;SDS011;5850;51.360;12.362;2022-11-20T03:17:37;32.83;;;19.83;;
11588;SDS011;5850;51.360;12.362;2022-11-20T03:20:05;29.17;;;18.07;;
11588;SDS011;5850;51.360;12.362;2022-11-20T03:22:35;30.40;;;19.60;;
11588;SDS011;5850;51.360;12.362;2022-11-20T03:25:03;33.42;;;19.45;;
11588;SDS011;5850;51.360;12.362;2022-11-20T03:27:33;28.60;;;19.53;;
11588;SDS011;5850;51.360;12.362;2022-11-20T03:30:01;29.20;;;18.63;;
11588;SDS011;5850;51.360;12.362;2022-11-20T03:32:31;30.23;;;19.20;;
11588;SDS011;5850;51.360;12.362;2022-11-20T03:35:00;30.87;;;19.13;;
11588;SDS011;5850;51.360;12.362;2022-11-20T03:37:28;29.50;;;18.42;;
11588;SDS011;5850;51.360;12.362;2022-11-20T03:39:56;24.77;;;17.42;;
11588;SDS011;5850;51.360;12.362;2022-11-20T03:42:25;28.38;;;18.58;;
11588;SDS011;5850;51.360;12.362;2022-11-20T03:45:11;26.87;;;18.07;;
11588;SDS011;5850;51.360;12.362;2022-11-20T03:47:44;28.17;;;19.20;;
11588;SDS011;5850;51.360;12.362;2022-11-20T03:50:13;30.98;;;19.30;;
11588;SDS011;5850;51.360;12.362;2022-11-20T03:52:42;30.30;;;19.48;;
11588;SDS011;5850;51.360;12.362;2022-11-20T03:55:11;31.38;;;19.83;;
11588;SDS011;5850;51.360;12.362;2022-11-20T03:57:39;30.27;;;19.08;;
11588;SDS011;5850;51.360;12.362;2022-11-20T04:00:08;34.88;;;19.77;;
11588;SDS011;5850;51.360;12.362;2022-11-20T04:02:37;31.05;;;19.70;;
11588;SDS011;5850;51.360;12.362;2022-11-20T04:05:05;32.67;;;20.15;;
11588;SDS011;5850;51.360;12.362;2022-11-20T04:07:33;36.07;;;21.00;;
11588;SDS011;5850;51.360;12.362;2022-11-20T04:10:02;32.03;;;19.92;;
11588;SDS011;5850;51.360;12.362;2022-11-20T04:12:31;32.63;;;20.93;;
11588;SDS011;5850;51.360;12.362;2022-11-20T04:15:00;33.15;;;20.92;;
11588;SDS011;5850;51.360;12.362;2022-11-20T04:17:29;29.40;;;20.10;;
11588;SDS011;5850;51.360;12.362;2022-11-20T04:19:57;34.73;;;22.67;;
11588;SDS011;5850;51.360;12.362;2022-11-20T04:22:26;33.35;;;21.15;;
11588;SDS011;5850;51.360;12.362;2022-11-20T04:24:54;31.60;;;20.27;;
11588;SDS011;5850;51.360;12.362;2022-11-20T04:27:23;34.20;;;21.80;;
11588;SDS011;5850;51.360;12.362;2022-11-20T04:29:51;31.93;;;21.03;;
11588;SDS011;5850;51.360;12.362;2022-11-20T04:32:20;33.72;;;20.88;;
11588;SDS011;5850;51.360;12.362;2022-11-20T04:34:48;30.50;;;20.23;;
11588;SDS011;5850;51.360;12.362;2022-11-20T04:37:17;32.03;;;21.20;;
11588;SDS011;5850;51.360;12.362;2022-11-20T04:39:45;33.30;;;20.58;;
11588;SDS011;5850;51.360;12.362;2022-11-20T04:42:13;34.25;;;22.40;;
11588;SDS011;5850;51.360;12.362;2022-11-20T04:44:57;36.72;;;22.60;;
11588;SDS011;5850;51.360;12.362;2022-11-20T04:47:25;30.83;;;20.73;;
11588;SDS011;5850;51.360;12.362;2022-11-20T04:49:54;36.85;;;20.88;;
11588;SDS011;5850;51.360;12.362;2022-11-20T04:52:22;37.83;;;22.52;;
11588;SDS011;5850;51.360;12.362;2022-11-20T04:54:51;34.72;;;22.10;;
11588;SDS011;5850;51.360;12.362;2022-11-20T04:57:20;32.70;;;20.67;;
11588;SDS011;5850;51.360;12.362;2022-11-20T04:59:49;36.05;;;21.70;;
11588;SDS011;5850;51.360;12.362;2022-11-20T05:02:18;37.78;;;21.15;;
11588;SDS011;5850;51.360;12.362;2022-11-20T05:04:47;36.22;;;21.58;;
11588;SDS011;5850;51.360;12.362;2022-11-20T05:07:15;34.22;;;21.02;;
11588;SDS011;5850;51.360;12.362;2022-11-20T05:09:44;31.80;;;20.98;;
11588;SDS011;5850;51.360;12.362;2022-11-20T05:12:12;34.90;;;21.25;;
11588;SDS011;5850;51.360;12.362;2022-11-20T05:14:41;33.47;;;21.90;;
11588;SDS011;5850;51.360;12.362;2022-11-20T05:17:10;34.47;;;22.30;;
11588;SDS011;5850;51.360;12.362;2022-11-20T05:19:39;32.35;;;21.35;;
11588;SDS011;5850;51.360;12.362;2022-11-20T05:22:07;34.63;;;22.02;;
11588;SDS011;5850;51.360;12.362;2022-11-20T05:24:36;38.30;;;22.45;;
11588;SDS011;5850;51.360;12.362;2022-11-20T05:27:04;30.60;;;20.98;;
11588;SDS011;5850;51.360;12.362;2022-11-20T05:29:33;34.40;;;21.30;;
11588;SDS011;5850;51.360;12.362;2022-11-20T05:32:01;33.67;;;21.93;;
11588;SDS011;5850;51.360;12.362;2022-11-20T05:34:32;33.67;;;21.55;;
11588;SDS011;5850;51.360;12.362;2022-11-20T05:37:00;36.70;;;22.38;;
11588;SDS011;5850;51.360;12.362;2022-11-20T05:39:29;37.33;;;22.10;;
11588;SDS011;5850;51.360;12.362;2022-11-20T05:41:57;31.38;;;20.25;;
11588;SDS011;5850;51.360;12.362;2022-11-20T05:44:43;33.08;;;21.95;;
11588;SDS011;5850;51.360;12.362;2022-11-20T05:47:12;36.25;;;21.60;;
11588;SDS011;5850;51.360;12.362;2022-11-20T05:49:40;32.67;;;21.70;;
11588;SDS011;5850;51.360;12.362;2022-11-20T05:52:09;36.28;;;22.70;;
11588;SDS011;5850;51.360;12.362;2022-11-20T05:54:37;33.60;;;20.90;;
11588;SDS011;5850;51.360;12.362;2022-11-20T05:57:05;31.85;;;19.52;;
11588;SDS011;5850;51.360;12.362;2022-11-20T05:59:34;34.60;;;21.40;;
11588;SDS011;5850;51.360;12.362;2022-11-20T06:02:02;33.45;;;21.98;;
11588;SDS011;5850;51.360;12.362;2022-11-20T06:04:31;33.00;;;20.75;;
11588;SDS011;5850;51.360;12.362;2022-11-20T06:06:59;32.43;;;22.03;;
11588;SDS011;5850;51.360;12.362;2022-11-20T06:09:28;33.03;;;21.05;;
11588;SDS011;5850;51.360;12.362;2022-11-20T06:11:57;37.83;;;22.40;;
11588;SDS011;5850;51.360;12.362;2022-11-20T06:14:25;34.88;;;21.23;;
11588;SDS011;5850;51.360;12.362;2022-11-20T06:16:54;36.45;;;22.13;;
11588;SDS011;5850;51.360;12.362;2022-11-20T06:19:22;34.88;;;20.98;;
11588;SDS011;5850;51.360;12.362;2022-11-20T06:21:51;34.30;;;21.02;;
11588;SDS011;5850;51.360;12.362;2022-11-20T06:24:19;32.38;;;20.90;;
11588;SDS011;5850;51.360;12.362;2022-11-20T06:26:48;39.33;;;22.55;;
11588;SDS011;5850;51.360;12.362;2022-11-20T06:29:17;34.58;;;21.88;;
11588;SDS011;5850;51.360;12.362;2022-11-20T06:31:46;37.60;;;23.33;;
11588;SDS011;5850;51.360;12.362;2022-11-20T06:34:15;35.22;;;22.42;;
11588;SDS011;5850;51.360;12.362;2022-11-20T06:36:43;38.22;;;22.98;;
11588;SDS011;5850;51.360;12.362;2022-11-20T06:39:11;32.45;;;21.65;;
11588;SDS011;5850;51.360;12.362;2022-11-20T06:41:40;33.50;;;21.08;;
11588;SDS011;5850;51.360;12.362;2022-11-20T06:44:08;35.30;;;21.80;;
11588;SDS011;5850;51.360;12.362;2022-11-20T06:46:37;34.67;;;22.33;;
11588;SDS011;5850;51.360;12.362;2022-11-20T06:49:06;38.92;;;23.35;;
11588;SDS011;5850;51.360;12.362;2022-11-20T06:51:34;36.45;;;22.38;;
11588;SDS011;5850;51.360;12.362;2022-11-20T06:54:02;36.15;;;22.23;;
11588;SDS011;5850;51.360;12.362;2022-11-20T06:56:31;37.33;;;22.45;;
11588;SDS011;5850;51.360;12.362;2022-11-20T06:59:03;34.27;;;22.37;;
11588;SDS011;5850;51.360;12.362;2022-11-20T07:01:36;37.45;;;21.85;;
11588;SDS011;5850;51.360;12.362;2022-11-20T07:04:04;36.30;;;23.17;;
11588;SDS011;5850;51.360;12.362;2022-11-20T07:06:33;34.43;;;21.97;;
11588;SDS011;5850;51.360;12.362;2022-11-20T07:09:01;34.78;;;22.67;;
11588;SDS011;5850;51.360;12.362;2022-11-20T07:11:37;36.28;;;21.85;;
11588;SDS011;5850;51.360;12.362;2022-11-20T07:14:06;34.33;;;21.42;;
11588;SDS011;5850;51.360;12.362;2022-11-20T07:16:34;33.75;;;22.25;;
11588;SDS011;5850;51.360;12.362;2022-11-20T07:19:03;34.85;;;22.05;;
11588;SDS011;5850;51.360;12.362;2022-11-20T07:21:32;33.53;;;21.93;;
11588;SDS011;5850;51.360;12.362;2022-11-20T07:24:00;39.63;;;22.60;;
11588;SDS011;5850;51.360;12.362;2022-11-20T07:26:28;38.00;;;22.13;;
11588;SDS011;5850;51.360;12.362;2022-11-20T07:28:57;35.25;;;21.58;;
11588;SDS011;5850;51.360;12.362;2022-11-20T07:31:25;33.47;;;21.67;;
11588;SDS011;5850;51.360;12.362;2022-11-20T07:33:54;33.97;;;22.40;;
11588;SDS011;5850;51.360;12.362;2022-11-20T07:36:22;34.70;;;21.43;;
11588;SDS011;5850;51.360;12.362;2022-11-20T07:38:51;34.80;;;21.83;;
11588;SDS011;5850;51.360;12.362;2022-11-20T07:41:20;33.00;;;22.03;;
11588;SDS011;5850;51.360;12.362;2022-11-20T07:43:49;36.57;;;21.70;;
11588;SDS011;5850;51.360;12.362;2022-11-20T07:46:17;32.73;;;21.07;;
11588;SDS011;5850;51.360;12.362;2022-11-20T07:48:46;34.78;;;21.20;;
11588;SDS011;5850;51.360;12.362;2022-11-20T07:51:14;39.90;;;22.37;;
11588;SDS011;5850;51.360;12.362;2022-11-20T07:53:42;38.63;;;22.43;;
11588;SDS011;5850;51.360;12.362;2022-11-20T07:56:11;29.63;;;20.70;;
11588;SDS011;5850;51.360;12.362;2022-11-20T07:58:40;32.20;;;21.43;;
11588;SDS011;5850;51.360;12.362;2022-11-20T08:01:09;34.08;;;22.30;;
11588;SDS011;5850;51.360;12.362;2022-11-20T08:03:37;32.00;;;19.17;;
11588;SDS011;5850;51.360;12.362;2022-11-20T08:06:06;31.17;;;20.50;;
11588;SDS011;5850;51.360;12.362;2022-11-20T08:08:35;33.20;;;21.03;;
11588;SDS011;5850;51.360;12.362;2022-11-20T08:11:08;35.00;;;21.30;;
11588;SDS011;5850;51.360;12.362;2022-11-20T08:13:54;32.67;;;20.83;;
11588;SDS011;5850;51.360;12.362;2022-11-20T08:16:48;33.73;;;21.30;;
11588;SDS011;5850;51.360;12.362;2022-11-20T08:19:17;34.67;;;20.93;;
11588;SDS011;5850;51.360;12.362;2022-11-20T08:21:46;31.13;;;20.23;;
11588;SDS011;5850;51.360;12.362;2022-11-20T08:24:16;32.67;;;20.70;;
11588;SDS011;5850;51.360;12.362;2022-11-20T08:26:44;35.33;;;21.17;;
11588;SDS011;5850;51.360;12.362;2022-11-20T08:29:13;33.03;;;20.63;;
11588;SDS011;5850;51.360;12.362;2022-11-20T08:31:41;30.17;;;20.23;;
11588;SDS011;5850;51.360;12.362;2022-11-20T08:34:10;36.00;;;20.90;;
11588;SDS011;5850;51.360;12.362;2022-11-20T08:36:44;31.97;;;21.03;;
11588;SDS011;5850;51.360;12.362;2022-11-20T08:39:13;33.03;;;21.83;;
11588;SDS011;5850;51.360;12.362;2022-11-20T08:41:41;33.30;;;21.53;;
11588;SDS011;5850;51.360;12.362;2022-11-20T08:44:10;30.83;;;20.50;;
11588;SDS011;5850;51.360;12.362;2022-11-20T08:46:41;31.43;;;19.53;;
11588;SDS011;5850;51.360;12.362;2022-11-20T08:49:12;28.93;;;19.37;;
11588;SDS011;5850;51.360;12.362;2022-11-20T08:51:41;30.80;;;19.73;;
11588;SDS011;5850;51.360;12.362;2022-11-20T08:54:09;28.33;;;18.97;;
11588;SDS011;5850;51.360;12.362;2022-11-20T08:56:38;27.77;;;18.07;;
11588;SDS011;5850;51.360;12.362;2022-11-20T08:59:07;25.40;;;17.83;;
11588;SDS011;5850;51.360;12.362;2022-11-20T09:01:55;29.37;;;18.70;;
11588;SDS011;5850;51.360;12.362;2022-11-20T09:04:24;27.83;;;18.33;;
11588;SDS011;5850;51.360;12.362;2022-11-20T09:06:53;25.70;;;18.13;;
11588;SDS011;5850;51.360;12.362;2022-11-20T09:09:21;25.30;;;17.17;;
11588;SDS011;5850;51.360;12.362;2022-11-20T09:11:50;27.07;;;17.57;;
11588;SDS011;5850;51.360;12.362;2022-11-20T09:14:19;29.07;;;17.97;;
11588;SDS011;5850;51.360;12.362;2022-11-20T09:16:47;25.17;;;16.87;;
11588;SDS011;5850;51.360;12.362;2022-11-20T09:19:16;25.93;;;17.80;;
11588;SDS011;5850;51.360;12.362;2022-11-20T09:22:01;27.17;;;17.57;;
11588;SDS011;5850;51.360;12.362;2022-11-20T09:24:31;26.50;;;16.67;;
11588;SDS011;5850;51.360;12.362;2022-11-20T09:27:01;25.67;;;16.53;;
11588;SDS011;5850;51.360;12.362;2022-11-20T09:29:31;25.53;;;17.67;;
11588;SDS011;5850;51.360;12.362;2022-11-20T09:32:00;31.70;;;18.83;;
11588;SDS011;5850;51.360;12.362;2022-11-20T09:34:28;28.43;;;18.13;;
11588;SDS011;5850;51.360;12.362;2022-11-20T09:36:57;29.17;;;17.83;;
11588;SDS011;5850;51.360;12.362;2022-11-20T09:39:31;23.47;;;16.90;;
11588;SDS011;5850;51.360;12.362;2022-11-20T09:50:41;28.57;;;17.47;;
11588;SDS011;5850;51.360;12.362;2022-11-20T09:56:20;24.13;;;16.07;;
11588;SDS011;5850;51.360;12.362;2022-11-20T09:58:53;25.60;;;17.47;;
11588;SDS011;5850;51.360;12.362;2022-11-20T10:01:26;29.53;;;18.27;;
11588;SDS011;5850;51.360;12.362;2022-11-20T10:04:19;26.60;;;17.57;;
11588;SDS011;5850;51.360;12.362;2022-11-20T10:09:57;26.10;;;17.33;;
11588;SDS011;5850;51.360;12.362;2022-11-20T10:15:33;29.10;;;17.27;;
11588;SDS011;5850;51.360;12.362;2022-11-20T10:18:44;29.13;;;19.57;;
11588;SDS011;5850;51.360;12.362;2022-11-20T10:25:16;32.07;;;19.53;;
11588;SDS011;5850;51.360;12.362;2022-11-20T10:30:40;29.63;;;18.30;;
11588;SDS011;5850;51.360;12.362;2022-11-20T10:33:19;30.33;;;18.90;;
11588;SDS011;5850;51.360;12.362;2022-11-20T10:38:46;24.67;;;16.73;;
11588;SDS011;5850;51.360;12.362;2022-11-20T10:41:39;29.97;;;19.33;;
11588;SDS011;5850;51.360;12.362;2022-11-20T10:44:11;28.23;;;17.47;;
11588;SDS011;5850;51.360;12.362;2022-11-20T10:47:13;26.33;;;17.50;;
11588;SDS011;5850;51.360;12.362;2022-11-20T10:49:45;27.03;;;17.40;;
11588;SDS011;5850;51.360;12.362;2022-11-20T10:52:38;25.77;;;16.67;;
11588;SDS011;5850;51.360;12.362;2022-11-20T10:55:40;25.77;;;17.13;;
11588;SDS011;5850;51.360;12.362;2022-11-20T10:58:17;25.63;;;17.77;;
11588;SDS011;5850;51.360;12.362;2022-11-20T11:01:05;25.60;;;16.87;;
11588;SDS011;5850;51.360;12.362;2022-11-20T11:03:44;24.83;;;17.13;;
11588;SDS011;5850;51.360;12.362;2022-11-20T11:09:15;20.57;;;14.33;;
11588;SDS011;5850;51.360;12.362;2022-11-20T11:11:49;20.37;;;14.20;;
11588;SDS011;5850;51.360;12.362;2022-11-20T11:14:18;20.20;;;13.20;;
11588;SDS011;5850;51.360;12.362;2022-11-20T11:16:50;18.30;;;12.70;;
11588;SDS011;5850;51.360;12.362;2022-11-20T11:19:20;19.97;;;12.93;;
11588;SDS011;5850;51.360;12.362;2022-11-20T11:21:51;16.73;;;12.07;;
11588;SDS011;5850;51.360;12.362;2022-11-20T11:24:27;18.97;;;12.37;;
11588;SDS011;5850;51.360;12.362;2022-11-20T11:27:12;17.97;;;12.30;;
11588;SDS011;5850;51.360;12.362;2022-11-20T11:29:45;17.17;;;12.53;;
11588;SDS011;5850;51.360;12.362;2022-11-20T11:32:15;15.03;;;11.20;;
11588;SDS011;5850;51.360;12.362;2022-11-20T11:35:04;17.00;;;12.13;;
11588;SDS011;5850;51.360;12.362;2022-11-20T11:37:39;16.70;;;11.07;;
11588;SDS011;5850;51.360;12.362;2022-11-20T11:40:10;13.87;;;10.33;;
11588;SDS011;5850;51.360;12.362;2022-11-20T11:42:58;16.77;;;10.60;;
11588;SDS011;5850;51.360;12.362;2022-11-20T11:45:31;14.77;;;9.80;;
11588;SDS011;5850;51.360;12.362;2022-11-20T11:48:00;15.03;;;10.13;;
11588;SDS011;5850;51.360;12.362;2022-11-20T11:50:31;14.27;;;10.00;;
11588;SDS011;5850;51.360;12.362;2022-11-20T11:53:09;13.83;;;9.93;;
11588;SDS011;5850;51.360;12.362;2022-11-20T11:55:43;13.63;;;9.63;;
11588;SDS011;5850;51.360;12.362;2022-11-20T12:04:29;12.77;;;9.07;;
11588;SDS011;5850;51.360;12.362;2022-11-20T12:10:22;13.60;;;9.83;;
11588;SDS011;5850;51.360;12.362;2022-11-20T12:15:53;15.03;;;10.63;;
11588;SDS011;5850;51.360;12.362;2022-11-20T12:18:22;16.73;;;10.80;;
11588;SDS011;5850;51.360;12.362;2022-11-20T12:23:41;14.60;;;10.67;;
11588;SDS011;5850;51.360;12.362;2022-11-20T12:26:52;15.70;;;10.73;;
11588;SDS011;5850;51.360;12.362;2022-11-20T12:29:52;16.37;;;11.20;;
11588;SDS011;5850;51.360;12.362;2022-11-20T12:39:01;15.00;;;10.33;;
11588;SDS011;5850;51.360;12.362;2022-11-20T12:45:41;14.20;;;9.80;;
11588;SDS011;5850;51.360;12.362;2022-11-20T12:59:55;14.40;;;9.90;;
11588;SDS011;5850;51.360;12.362;2022-11-20T13:02:41;14.90;;;10.73;;
11588;SDS011;5850;51.360;12.362;2022-11-20T13:08:35;17.60;;;11.50;;
11588;SDS011;5850;51.360;12.362;2022-11-20T13:14:03;16.40;;;10.87;;
11588;SDS011;5850;51.360;12.362;2022-11-20T13:17:03;14.87;;;10.37;;
11588;SDS011;5850;51.360;12.362;2022-11-20T13:19:54;13.17;;;9.37;;
11588;SDS011;5850;51.360;12.362;2022-11-20T13:22:25;13.27;;;10.60;;
11588;SDS011;5850;51.360;12.362;2022-11-20T13:24:54;15.20;;;10.60;;
11588;SDS011;5850;51.360;12.362;2022-11-20T13:27:23;13.00;;;9.37;;
11588;SDS011;5850;51.360;12.362;2022-11-20T13:30:03;14.07;;;9.73;;
11588;SDS011;5850;51.360;12.362;2022-11-20T13:32:53;14.70;;;9.40;;
11588;SDS011;5850;51.360;12.362;2022-11-20T13:36:06;16.33;;;10.73;;
11588;SDS011;5850;51.360;12.362;2022-11-20T13:38:52;14.13;;;10.27;;
11588;SDS011;5850;51.360;12.362;2022-11-20T13:41:23;14.87;;;10.73;;
11588;SDS011;5850;51.360;12.362;2022-11-20T13:47:00;16.67;;;11.33;;
11588;SDS011;5850;51.360;12.362;2022-11-20T13:49:33;14.93;;;10.80;;
11588;SDS011;5850;51.360;12.362;2022-11-20T13:55:23;13.83;;;8.93;;
11588;SDS011;5850;51.360;12.362;2022-11-20T14:01:20;12.27;;;8.50;;
11588;SDS011;5850;51.360;12.362;2022-11-20T14:03:51;13.20;;;9.30;;
11588;SDS011;5850;51.360;12.362;2022-11-20T14:06:41;10.80;;;8.40;;
11588;SDS011;5850;51.360;12.362;2022-11-20T14:09:12;12.03;;;9.23;;
11588;SDS011;5850;51.360;12.362;2022-11-20T14:11:55;13.17;;;9.00;;
11588;SDS011;5850;51.360;12.362;2022-11-20T14:14:25;13.27;;;9.10;;
11588;SDS011;5850;51.360;12.362;2022-11-20T14:17:08;14.10;;;9.03;;
11588;SDS011;5850;51.360;12.362;2022-11-20T14:20:05;12.70;;;8.17;;
11588;SDS011;5850;51.360;12.362;2022-11-20T14:22:47;12.67;;;8.97;;
11588;SDS011;5850;51.360;12.362;2022-11-20T14:27:49;14.07;;;8.87;;
11588;SDS011;5850;51.360;12.362;2022-11-20T14:30:44;16.00;;;9.60;;
11588;SDS011;5850;51.360;12.362;2022-11-20T14:33:16;13.03;;;8.37;;
11588;SDS011;5850;51.360;12.362;2022-11-20T14:35:47;14.40;;;9.40;;
11588;SDS011;5850;51.360;12.362;2022-11-20T14:38:22;14.80;;;9.60;;
11588;SDS011;5850;51.360;12.362;2022-11-20T14:41:05;12.50;;;8.87;;
11588;SDS011;5850;51.360;12.362;2022-11-20T14:43:35;18.40;;;9.40;;
11588;SDS011;5850;51.360;12.362;2022-11-20T14:46:08;22.53;;;9.77;;
11588;SDS011;5850;51.360;12.362;2022-11-20T14:51:23;26.77;;;10.03;;
11588;SDS011;5850;51.360;12.362;2022-11-20T14:54:25;25.77;;;9.30;;
11588;SDS011;5850;51.360;12.362;2022-11-20T14:56:55;20.87;;;10.60;;
11588;SDS011;5850;51.360;12.362;2022-11-20T14:59:32;13.77;;;9.00;;
11588;SDS011;5850;51.360;12.362;2022-11-20T15:02:03;12.67;;;9.17;;
11588;SDS011;5850;51.360;12.362;2022-11-20T15:04:48;15.90;;;8.77;;
11588;SDS011;5850;51.360;12.362;2022-11-20T15:07:28;12.93;;;9.07;;
11588;SDS011;5850;51.360;12.362;2022-11-20T15:10:07;16.37;;;10.43;;
11588;SDS011;5850;51.360;12.362;2022-11-20T15:12:38;21.27;;;10.80;;
11588;SDS011;5850;51.360;12.362;2022-11-20T15:18:04;26.90;;;12.20;;
11588;SDS011;5850;51.360;12.362;2022-11-20T15:20:32;17.33;;;11.10;;
11588;SDS011;5850;51.360;12.362;2022-11-20T15:23:01;15.53;;;10.37;;
11588;SDS011;5850;51.360;12.362;2022-11-20T15:25:35;15.67;;;9.97;;
11588;SDS011;5850;51.360;12.362;2022-11-20T15:31:10;18.80;;;11.40;;
11588;SDS011;5850;51.360;12.362;2022-11-20T15:33:41;18.43;;;10.70;;
11588;SDS011;5850;51.360;12.362;2022-11-20T15:36:10;15.03;;;10.53;;
11588;SDS011;5850;51.360;12.362;2022-11-20T15:38:39;19.23;;;11.03;;
11588;SDS011;5850;51.360;12.362;2022-11-20T15:41:07;18.63;;;11.53;;
11588;SDS011;5850;51.360;12.362;2022-11-20T15:43:36;17.57;;;11.73;;
11588;SDS011;5850;51.360;12.362;2022-11-20T15:46:10;15.93;;;10.90;;
11588;SDS011;5850;51.360;12.362;2022-11-20T15:48:43;17.27;;;10.50;;
11588;SDS011;5850;51.360;12.362;2022-11-20T15:53:58;17.37;;;10.83;;
11588;SDS011;5850;51.360;12.362;2022-11-20T15:56:28;18.03;;;10.83;;
11588;SDS011;5850;51.360;12.362;2022-11-20T15:58:59;15.93;;;10.90;;
11588;SDS011;5850;51.360;12.362;2022-11-20T16:01:27;19.47;;;12.60;;
11588;SDS011;5850;51.360;12.362;2022-11-20T16:03:56;19.83;;;11.70;;
11588;SDS011;5850;51.360;12.362;2022-11-20T16:06:25;17.50;;;12.00;;
11588;SDS011;5850;51.360;12.362;2022-11-20T16:08:53;19.60;;;12.07;;
11588;SDS011;5850;51.360;12.362;2022-11-20T16:11:21;16.23;;;12.23;;
11588;SDS011;5850;51.360;12.362;2022-11-20T16:13:50;15.73;;;10.73;;
11588;SDS011;5850;51.360;12.362;2022-11-20T16:16:36;17.83;;;11.80;;
11588;SDS011;5850;51.360;12.362;2022-11-20T16:19:09;17.50;;;11.90;;
11588;SDS011;5850;51.360;12.362;2022-11-20T16:21:41;16.47;;;10.73;;
11588;SDS011;5850;51.360;12.362;2022-11-20T16:24:11;15.57;;;10.83;;
11588;SDS011;5850;51.360;12.362;2022-11-20T16:26:41;16.93;;;11.07;;
11588;SDS011;5850;51.360;12.362;2022-11-20T16:29:10;15.83;;;11.67;;
11588;SDS011;5850;51.360;12.362;2022-11-20T16:31:38;19.13;;;11.43;;
11588;SDS011;5850;51.360;12.362;2022-11-20T16:34:07;18.53;;;11.97;;
11588;SDS011;5850;51.360;12.362;2022-11-20T16:36:41;18.20;;;12.27;;
11588;SDS011;5850;51.360;12.362;2022-11-20T16:39:11;18.87;;;12.13;;
11588;SDS011;5850;51.360;12.362;2022-11-20T16:41:48;18.23;;;12.47;;